sensor_id;sensor_type;location;lat;lon;timestamp;pressure;altitude;pressure_sealevel;temperature;humidity
41573;BME280;27286;47.870;19.006;2024-02-26T00:01:35;98449.16;;;8.48;100.00
41573;BME280;27286;47.870;19.006;2024-02-26T00:04:01;98461.47;;;8.62;100.00
41573;BME280;27286;47.870;19.006;2024-02-26T00:06:30;98456.94;;;8.48;100.00
41573;BME280;27286;47.870;19.006;2024-02-26T00:08:56;98449.84;;;8.69;100.00
41573;BME280;27286;47.870;19.006;2024-02-26T00:11:21;98450.91;;;8.48;100.00
41573;BME280;27286;47.870;19.006;2024-02-26T00:13:47;98448.16;;;8.68;100.00
41573;BME280;27286;47.870;19.006;2024-02-26T00:16:12;98447.81;;;9.43;100.00
41573;BME280;27286;47.870;19.006;2024-02-26T00:18:38;98443.72;;;9.55;100.00
41573;BME280;27286;47.870;19.006;2024-02-26T00:21:03;98448.78;;;9.25;100.00
41573;BME280;27286;47.870;19.006;2024-02-26T00:23:29;98442.47;;;8.96;100.00
41573;BME280;27286;47.870;19.006;2024-02-26T00:25:54;98444.97;;;8.63;100.00
41573;BME280;27286;47.870;19.006;2024-02-26T00:28:20;98429.06;;;8.34;100.00
41573;BME280;27286;47.870;19.006;2024-02-26T00:30:46;98436.59;;;8.58;100.00
41573;BME280;27286;47.870;19.006;2024-02-26T00:33:12;98441.03;;;8.90;100.00
41573;BME280;27286;47.870;19.006;2024-02-26T00:35:37;98438.00;;;9.15;100.00
41573;BME280;27286;47.870;19.006;2024-02-26T00:38:03;98436.28;;;8.98;100.00
41573;BME280;27286;47.870;19.006;2024-02-26T00:40:29;98438.25;;;8.93;100.00
41573;BME280;27286;47.870;19.006;2024-02-26T00:42:54;98432.75;;;8.99;100.00
41573;BME280;27286;47.870;19.006;2024-02-26T00:45:20;98437.94;;;8.82;100.00
41573;BME280;27286;47.870;19.006;2024-02-26T00:47:45;98434.91;;;8.57;100.00
41573;BME280;27286;47.870;19.006;2024-02-26T00:50:12;98436.72;;;8.72;100.00
41573;BME280;27286;47.870;19.006;2024-02-26T00:52:38;98423.25;;;9.16;100.00
41573;BME280;27286;47.870;19.006;2024-02-26T00:55:04;98437.50;;;8.91;100.00
41573;BME280;27286;47.870;19.006;2024-02-26T00:57:29;98433.84;;;8.78;100.00
41573;BME280;27286;47.870;19.006;2024-02-26T00:59:55;98432.91;;;9.14;100.00
41573;BME280;27286;47.870;19.006;2024-02-26T01:02:22;98426.88;;;9.46;100.00
41573;BME280;27286;47.870;19.006;2024-02-26T01:04:48;98424.03;;;9.18;100.00
41573;BME280;27286;47.870;19.006;2024-02-26T01:07:13;98422.84;;;9.08;100.00
41573;BME280;27286;47.870;19.006;2024-02-26T01:09:39;98427.00;;;9.27;100.00
41573;BME280;27286;47.870;19.006;2024-02-26T01:12:04;98418.25;;;9.13;100.00
41573;BME280;27286;47.870;19.006;2024-02-26T01:14:30;98420.38;;;9.04;100.00
41573;BME280;27286;47.870;19.006;2024-02-26T01:16:55;98402.84;;;8.92;100.00
41573;BME280;27286;47.870;19.006;2024-02-26T01:19:21;98410.41;;;8.62;100.00
41573;BME280;27286;47.870;19.006;2024-02-26T01:21:46;98411.81;;;9.02;100.00
41573;BME280;27286;47.870;19.006;2024-02-26T01:24:12;98415.19;;;9.04;100.00
41573;BME280;27286;47.870;19.006;2024-02-26T01:26:38;98410.53;;;9.11;100.00
41573;BME280;27286;47.870;19.006;2024-02-26T01:29:04;98409.97;;;9.04;100.00
41573;BME280;27286;47.870;19.006;2024-02-26T01:31:29;98407.06;;;9.28;100.00
41573;BME280;27286;47.870;19.006;2024-02-26T01:33:55;98413.63;;;9.18;100.00
41573;BME280;27286;47.870;19.006;2024-02-26T01:36:20;98412.72;;;9.19;100.00
41573;BME280;27286;47.870;19.006;2024-02-26T01:38:46;98420.38;;;9.04;100.00
41573;BME280;27286;47.870;19.006;2024-02-26T01:41:13;98412.81;;;9.17;100.00
41573;BME280;27286;47.870;19.006;2024-02-26T01:43:39;98408.19;;;9.22;100.00
41573;BME280;27286;47.870;19.006;2024-02-26T01:46:05;98391.13;;;9.01;100.00
41573;BME280;27286;47.870;19.006;2024-02-26T01:48:31;98394.41;;;9.04;100.00
41573;BME280;27286;47.870;19.006;2024-02-26T01:50:57;98399.84;;;9.33;100.00
41573;BME280;27286;47.870;19.006;2024-02-26T01:53:22;98403.00;;;9.22;100.00
41573;BME280;27286;47.870;19.006;2024-02-26T01:55:49;98404.81;;;8.87;100.00
41573;BME280;27286;47.870;19.006;2024-02-26T01:58:14;98413.41;;;9.05;100.00
41573;BME280;27286;47.870;19.006;2024-02-26T02:00:40;98416.09;;;9.03;100.00
41573;BME280;27286;47.870;19.006;2024-02-26T02:03:06;98410.84;;;8.70;100.00
41573;BME280;27286;47.870;19.006;2024-02-26T02:05:31;98403.78;;;8.57;100.00
41573;BME280;27286;47.870;19.006;2024-02-26T02:07:58;98413.22;;;8.92;100.00
41573;BME280;27286;47.870;19.006;2024-02-26T02:10:25;98402.66;;;9.13;100.00
41573;BME280;27286;47.870;19.006;2024-02-26T02:12:51;98412.03;;;9.15;100.00
41573;BME280;27286;47.870;19.006;2024-02-26T02:15:17;98408.00;;;9.10;100.00
41573;BME280;27286;47.870;19.006;2024-02-26T02:17:42;98409.94;;;9.22;100.00
41573;BME280;27286;47.870;19.006;2024-02-26T02:20:09;98419.78;;;9.32;100.00
41573;BME280;27286;47.870;19.006;2024-02-26T02:22:35;98409.81;;;9.25;100.00
41573;BME280;27286;47.870;19.006;2024-02-26T02:25:00;98412.03;;;9.15;100.00
41573;BME280;27286;47.870;19.006;2024-02-26T02:27:27;98413.13;;;9.11;100.00
41573;BME280;27286;47.870;19.006;2024-02-26T02:29:54;98398.97;;;9.17;100.00
41573;BME280;27286;47.870;19.006;2024-02-26T02:32:20;98403.09;;;9.21;100.00
41573;BME280;27286;47.870;19.006;2024-02-26T02:34:46;98399.97;;;9.14;100.00
41573;BME280;27286;47.870;19.006;2024-02-26T02:37:12;98401.97;;;9.09;100.00
41573;BME280;27286;47.870;19.006;2024-02-26T02:39:37;98408.31;;;9.03;100.00
41573;BME280;27286;47.870;19.006;2024-02-26T02:42:04;98403.47;;;8.80;100.00
41573;BME280;27286;47.870;19.006;2024-02-26T02:44:29;98404.81;;;8.87;100.00
41573;BME280;27286;47.870;19.006;2024-02-26T02:46:54;98395.06;;;8.58;100.00
41573;BME280;27286;47.870;19.006;2024-02-26T02:49:20;98397.72;;;8.39;100.00
41573;BME280;27286;47.870;19.006;2024-02-26T02:51:45;98394.72;;;8.29;100.00
41573;BME280;27286;47.870;19.006;2024-02-26T02:54:10;98392.41;;;8.23;100.00
41573;BME280;27286;47.870;19.006;2024-02-26T02:56:36;98393.25;;;8.24;100.00
41573;BME280;27286;47.870;19.006;2024-02-26T02:59:02;98389.19;;;8.18;100.00
41573;BME280;27286;47.870;19.006;2024-02-26T03:01:27;98386.53;;;8.20;100.00
41573;BME280;27286;47.870;19.006;2024-02-26T03:03:52;98388.28;;;8.19;100.00
41573;BME280;27286;47.870;19.006;2024-02-26T03:06:18;98391.34;;;8.27;100.00
41573;BME280;27286;47.870;19.006;2024-02-26T03:08:43;98388.13;;;8.58;100.00
41573;BME280;27286;47.870;19.006;2024-02-26T03:11:13;98384.69;;;8.58;100.00
41573;BME280;27286;47.870;19.006;2024-02-26T03:13:40;98375.75;;;8.46;100.00
41573;BME280;27286;47.870;19.006;2024-02-26T03:16:05;98380.03;;;8.47;100.00
41573;BME280;27286;47.870;19.006;2024-02-26T03:18:31;98379.50;;;8.40;100.00
41573;BME280;27286;47.870;19.006;2024-02-26T03:20:56;98385.59;;;8.39;100.00
41573;BME280;27286;47.870;19.006;2024-02-26T03:23:22;98382.09;;;8.40;100.00
41573;BME280;27286;47.870;19.006;2024-02-26T03:25:47;98386.72;;;8.34;100.00
41573;BME280;27286;47.870;19.006;2024-02-26T03:28:13;98374.13;;;8.26;100.00
41573;BME280;27286;47.870;19.006;2024-02-26T03:30:38;98373.19;;;8.27;100.00
41573;BME280;27286;47.870;19.006;2024-02-26T03:33:04;98385.19;;;8.30;100.00
41573;BME280;27286;47.870;19.006;2024-02-26T03:35:29;98382.75;;;8.27;100.00
41573;BME280;27286;47.870;19.006;2024-02-26T03:37:55;98383.94;;;8.20;100.00
41573;BME280;27286;47.870;19.006;2024-02-26T03:40:20;98368.84;;;8.28;100.00
41573;BME280;27286;47.870;19.006;2024-02-26T03:42:46;98387.34;;;8.56;100.00
41573;BME280;27286;47.870;19.006;2024-02-26T03:45:11;98385.31;;;8.46;100.00
41573;BME280;27286;47.870;19.006;2024-02-26T03:47:40;98378.59;;;8.41;100.00
41573;BME280;27286;47.870;19.006;2024-02-26T03:50:06;98377.31;;;8.31;100.00
41573;BME280;27286;47.870;19.006;2024-02-26T03:52:32;98369.09;;;8.23;100.00
41573;BME280;27286;47.870;19.006;2024-02-26T03:54:57;98378.47;;;8.26;100.00
41573;BME280;27286;47.870;19.006;2024-02-26T03:57:22;98383.66;;;8.26;100.00
41573;BME280;27286;47.870;19.006;2024-02-26T03:59:48;98379.47;;;8.23;100.00
41573;BME280;27286;47.870;19.006;2024-02-26T04:02:13;98376.91;;;8.22;100.00
41573;BME280;27286;47.870;19.006;2024-02-26T04:04:39;98385.41;;;8.25;100.00
41573;BME280;27286;47.870;19.006;2024-02-26T04:07:04;98391.34;;;8.27;100.00
41573;BME280;27286;47.870;19.006;2024-02-26T04:09:31;98379.31;;;8.26;100.00
41573;BME280;27286;47.870;19.006;2024-02-26T04:11:56;98382.94;;;8.22;100.00
41573;BME280;27286;47.870;19.006;2024-02-26T04:14:22;98376.63;;;8.28;100.00
41573;BME280;27286;47.870;19.006;2024-02-26T04:16:47;98372.94;;;8.51;100.00
41573;BME280;27286;47.870;19.006;2024-02-26T04:19:16;98380.84;;;8.82;100.00
41573;BME280;27286;47.870;19.006;2024-02-26T04:21:42;98370.03;;;8.91;100.00
41573;BME280;27286;47.870;19.006;2024-02-26T04:24:08;98374.06;;;8.80;100.00
41573;BME280;27286;47.870;19.006;2024-02-26T04:26:33;98376.75;;;8.61;100.00
41573;BME280;27286;47.870;19.006;2024-02-26T04:28:58;98374.16;;;8.43;100.00
41573;BME280;27286;47.870;19.006;2024-02-26T04:31:24;98381.41;;;8.54;100.00
41573;BME280;27286;47.870;19.006;2024-02-26T04:33:50;98381.78;;;8.47;100.00
41573;BME280;27286;47.870;19.006;2024-02-26T04:36:15;98374.16;;;8.61;100.00
41573;BME280;27286;47.870;19.006;2024-02-26T04:38:42;98379.19;;;8.47;100.00
41573;BME280;27286;47.870;19.006;2024-02-26T04:41:07;98366.88;;;8.33;100.00
41573;BME280;27286;47.870;19.006;2024-02-26T04:43:33;98374.13;;;8.26;100.00
41573;BME280;27286;47.870;19.006;2024-02-26T04:45:58;98361.81;;;8.12;100.00
41573;BME280;27286;47.870;19.006;2024-02-26T04:48:24;98364.41;;;8.12;100.00
41573;BME280;27286;47.870;19.006;2024-02-26T04:50:49;98372.13;;;8.14;100.00
41573;BME280;27286;47.870;19.006;2024-02-26T04:53:14;98367.84;;;8.13;100.00
41573;BME280;27286;47.870;19.006;2024-02-26T04:55:40;98365.03;;;8.18;100.00
41573;BME280;27286;47.870;19.006;2024-02-26T04:58:05;98368.22;;;8.23;100.00
41573;BME280;27286;47.870;19.006;2024-02-26T05:00:31;98365.28;;;8.30;100.00
41573;BME280;27286;47.870;19.006;2024-02-26T05:02:56;98367.66;;;8.35;100.00
41573;BME280;27286;47.870;19.006;2024-02-26T05:05:21;98364.44;;;8.30;100.00
41573;BME280;27286;47.870;19.006;2024-02-26T05:07:47;98363.03;;;8.23;100.00
41573;BME280;27286;47.870;19.006;2024-02-26T05:10:12;98359.16;;;8.31;100.00
41573;BME280;27286;47.870;19.006;2024-02-26T05:12:38;98360.09;;;8.30;100.00
41573;BME280;27286;47.870;19.006;2024-02-26T05:15:04;98358.91;;;8.19;100.00
41573;BME280;27286;47.870;19.006;2024-02-26T05:17:30;98364.19;;;8.17;100.00
41573;BME280;27286;47.870;19.006;2024-02-26T05:19:55;98368.13;;;8.60;100.00
41573;BME280;27286;47.870;19.006;2024-02-26T05:22:20;98367.63;;;8.87;100.00
41573;BME280;27286;47.870;19.006;2024-02-26T05:24:46;98369.44;;;9.02;100.00
41573;BME280;27286;47.870;19.006;2024-02-26T05:27:11;98369.88;;;8.77;100.00
41573;BME280;27286;47.870;19.006;2024-02-26T05:29:37;98369.50;;;8.50;100.00
41573;BME280;27286;47.870;19.006;2024-02-26T05:32:03;98372.78;;;8.36;100.00
41573;BME280;27286;47.870;19.006;2024-02-26T05:34:29;98368.78;;;8.29;100.00
41573;BME280;27286;47.870;19.006;2024-02-26T05:36:55;98361.19;;;8.43;100.00
41573;BME280;27286;47.870;19.006;2024-02-26T05:39:21;98367.66;;;8.35;100.00
41573;BME280;27286;47.870;19.006;2024-02-26T05:41:46;98372.84;;;8.52;100.00
41573;BME280;27286;47.870;19.006;2024-02-26T05:44:12;98371.72;;;8.40;100.00
41573;BME280;27286;47.870;19.006;2024-02-26T05:46:37;98367.66;;;8.35;100.00
41573;BME280;27286;47.870;19.006;2024-02-26T05:49:02;98359.56;;;8.24;100.00
41573;BME280;27286;47.870;19.006;2024-02-26T05:51:28;98367.03;;;8.30;100.00
41573;BME280;27286;47.870;19.006;2024-02-26T05:53:53;98370.31;;;8.33;100.00
41573;BME280;27286;47.870;19.006;2024-02-26T05:56:21;98384.59;;;8.94;100.00
41573;BME280;27286;47.870;19.006;2024-02-26T05:58:47;98370.13;;;9.05;100.00
41573;BME280;27286;47.870;19.006;2024-02-26T06:01:13;98372.00;;;9.19;100.00
41573;BME280;27286;47.870;19.006;2024-02-26T06:03:38;98374.13;;;8.95;100.00
41573;BME280;27286;47.870;19.006;2024-02-26T06:06:04;98376.91;;;8.75;100.00
41573;BME280;27286;47.870;19.006;2024-02-26T06:08:30;98379.78;;;8.69;100.00
41573;BME280;27286;47.870;19.006;2024-02-26T06:10:56;98379.28;;;8.62;100.00
41573;BME280;27286;47.870;19.006;2024-02-26T06:13:21;98384.69;;;8.58;100.00
41573;BME280;27286;47.870;19.006;2024-02-26T06:15:47;98385.81;;;8.52;100.00
41573;BME280;27286;47.870;19.006;2024-02-26T06:18:12;98376.69;;;8.45;100.00
41573;BME280;27286;47.870;19.006;2024-02-26T06:20:37;98387.28;;;8.58;100.00
41573;BME280;27286;47.870;19.006;2024-02-26T06:23:03;98388.34;;;8.54;100.00
41573;BME280;27286;47.870;19.006;2024-02-26T06:25:28;98393.25;;;8.60;100.00
41573;BME280;27286;47.870;19.006;2024-02-26T06:27:54;98393.75;;;8.66;100.00
41573;BME280;27286;47.870;19.006;2024-02-26T06:30:20;98398.88;;;8.68;100.00
41573;BME280;27286;47.870;19.006;2024-02-26T06:32:45;98405.91;;;8.66;100.00
41573;BME280;27286;47.870;19.006;2024-02-26T06:35:11;98407.72;;;8.64;100.00
41573;BME280;27286;47.870;19.006;2024-02-26T06:37:37;98408.50;;;8.66;100.00
41573;BME280;27286;47.870;19.006;2024-02-26T06:40:02;98413.16;;;8.77;100.00
41573;BME280;27286;47.870;19.006;2024-02-26T06:42:32;98405.38;;;8.77;100.00
41573;BME280;27286;47.870;19.006;2024-02-26T06:44:58;98413.84;;;8.80;100.00
41573;BME280;27286;47.870;19.006;2024-02-26T06:47:23;98418.78;;;8.85;100.00
41573;BME280;27286;47.870;19.006;2024-02-26T06:49:48;98389.34;;;8.68;100.00
41573;BME280;27286;47.870;19.006;2024-02-26T06:52:14;98403.47;;;8.80;100.00
41573;BME280;27286;47.870;19.006;2024-02-26T06:54:39;98403.91;;;8.88;100.00
41573;BME280;27286;47.870;19.006;2024-02-26T06:57:05;98414.91;;;8.93;100.00
41573;BME280;27286;47.870;19.006;2024-02-26T06:59:30;98410.22;;;9.00;100.00
41573;BME280;27286;47.870;19.006;2024-02-26T07:01:56;98410.56;;;8.94;100.00
41573;BME280;27286;47.870;19.006;2024-02-26T07:04:21;98414.41;;;9.02;100.00
41573;BME280;27286;47.870;19.006;2024-02-26T07:06:47;98405.88;;;9.00;100.00
41573;BME280;27286;47.870;19.006;2024-02-26T07:09:12;98406.63;;;9.02;100.00
41573;BME280;27286;47.870;19.006;2024-02-26T07:11:38;98405.16;;;9.14;100.00
41573;BME280;27286;47.870;19.006;2024-02-26T07:14:08;98399.59;;;9.38;100.00
41573;BME280;27286;47.870;19.006;2024-02-26T07:16:33;98402.28;;;9.36;100.00
41573;BME280;27286;47.870;19.006;2024-02-26T07:18:58;98402.13;;;9.39;100.00
41573;BME280;27286;47.870;19.006;2024-02-26T07:21:24;98407.31;;;9.39;100.00
41573;BME280;27286;47.870;19.006;2024-02-26T07:23:49;98411.59;;;9.40;100.00
41573;BME280;27286;47.870;19.006;2024-02-26T07:26:15;98409.91;;;9.39;100.00
41573;BME280;27286;47.870;19.006;2024-02-26T07:28:42;98416.78;;;9.40;100.00
41573;BME280;27286;47.870;19.006;2024-02-26T07:31:07;98414.16;;;9.57;100.00
41573;BME280;27286;47.870;19.006;2024-02-26T07:33:33;98420.59;;;9.50;100.00
41573;BME280;27286;47.870;19.006;2024-02-26T07:35:58;98414.41;;;9.69;100.00
41573;BME280;27286;47.870;19.006;2024-02-26T07:38:24;98406.53;;;9.70;100.00
41573;BME280;27286;47.870;19.006;2024-02-26T07:40:49;98415.16;;;10.02;100.00
41573;BME280;27286;47.870;19.006;2024-02-26T07:43:15;98405.38;;;10.23;100.00
41573;BME280;27286;47.870;19.006;2024-02-26T07:45:40;98404.44;;;10.24;100.00
41573;BME280;27286;47.870;19.006;2024-02-26T07:48:06;98410.41;;;10.56;100.00
41573;BME280;27286;47.870;19.006;2024-02-26T07:50:32;98409.28;;;10.76;100.00
41573;BME280;27286;47.870;19.006;2024-02-26T07:52:57;98414.06;;;10.38;100.00
41573;BME280;27286;47.870;19.006;2024-02-26T07:55:23;98415.41;;;10.45;100.00
41573;BME280;27286;47.870;19.006;2024-02-26T07:57:49;98416.50;;;10.41;100.00
41573;BME280;27286;47.870;19.006;2024-02-26T08:00:14;98415.00;;;10.05;100.00
41573;BME280;27286;47.870;19.006;2024-02-26T08:02:42;98426.41;;;9.87;100.00
41573;BME280;27286;47.870;19.006;2024-02-26T08:05:08;98424.56;;;10.05;100.00
41573;BME280;27286;47.870;19.006;2024-02-26T08:07:33;98428.72;;;10.54;100.00
41573;BME280;27286;47.870;19.006;2024-02-26T08:09:59;98422.38;;;10.44;100.00
41573;BME280;27286;47.870;19.006;2024-02-26T08:12:24;98431.31;;;10.54;100.00
41573;BME280;27286;47.870;19.006;2024-02-26T08:14:49;98429.84;;;10.35;100.00
41573;BME280;27286;47.870;19.006;2024-02-26T08:17:15;98437.16;;;10.12;100.00
41573;BME280;27286;47.870;19.006;2024-02-26T08:19:40;98442.28;;;10.30;100.00
41573;BME280;27286;47.870;19.006;2024-02-26T08:22:06;98434.78;;;10.39;100.00
41573;BME280;27286;47.870;19.006;2024-02-26T08:24:31;98433.03;;;10.40;100.00
41573;BME280;27286;47.870;19.006;2024-02-26T08:26:56;98443.78;;;10.34;100.00
41573;BME280;27286;47.870;19.006;2024-02-26T08:29:22;98434.56;;;10.12;100.00
41573;BME280;27286;47.870;19.006;2024-02-26T08:31:47;98430.38;;;10.10;100.00
41573;BME280;27286;47.870;19.006;2024-02-26T08:34:14;98436.41;;;10.10;100.00
41573;BME280;27286;47.870;19.006;2024-02-26T08:36:39;98436.53;;;10.54;100.00
41573;BME280;27286;47.870;19.006;2024-02-26T08:39:05;98443.94;;;10.15;100.00
41573;BME280;27286;47.870;19.006;2024-02-26T08:41:30;98450.75;;;10.17;100.00
41573;BME280;27286;47.870;19.006;2024-02-26T08:43:55;98439.41;;;10.18;100.00
41573;BME280;27286;47.870;19.006;2024-02-26T08:46:21;98443.78;;;10.34;100.00
41573;BME280;27286;47.870;19.006;2024-02-26T08:48:46;98443.84;;;10.64;100.00
41573;BME280;27286;47.870;19.006;2024-02-26T08:51:12;98433.69;;;10.59;100.00
41573;BME280;27286;47.870;19.006;2024-02-26T08:53:38;98442.50;;;10.41;100.00
41573;BME280;27286;47.870;19.006;2024-02-26T08:56:04;98440.50;;;10.46;100.00
41573;BME280;27286;47.870;19.006;2024-02-26T08:58:29;98442.53;;;11.01;100.00
41573;BME280;27286;47.870;19.006;2024-02-26T09:00:55;98451.94;;;11.03;100.00
41573;BME280;27286;47.870;19.006;2024-02-26T09:03:21;98450.94;;;11.20;100.00
41573;BME280;27286;47.870;19.006;2024-02-26T09:05:46;98446.78;;;11.32;100.00
41573;BME280;27286;47.870;19.006;2024-02-26T09:08:12;98448.81;;;11.27;100.00
41573;BME280;27286;47.870;19.006;2024-02-26T09:10:38;98441.94;;;11.68;100.00
41573;BME280;27286;47.870;19.006;2024-02-26T09:13:04;98442.03;;;11.95;98.64
41573;BME280;27286;47.870;19.006;2024-02-26T09:15:29;98448.31;;;12.05;96.88
41573;BME280;27286;47.870;19.006;2024-02-26T09:17:54;98448.00;;;11.97;98.31
41573;BME280;27286;47.870;19.006;2024-02-26T09:20:20;98451.69;;;12.08;98.88
41573;BME280;27286;47.870;19.006;2024-02-26T09:22:47;98443.09;;;12.20;97.16
41573;BME280;27286;47.870;19.006;2024-02-26T09:25:13;98444.63;;;12.63;95.98
41573;BME280;27286;47.870;19.006;2024-02-26T09:27:41;98447.50;;;12.86;93.79
41573;BME280;27286;47.870;19.006;2024-02-26T09:30:07;98443.28;;;13.23;92.29
41573;BME280;27286;47.870;19.006;2024-02-26T09:32:32;98447.88;;;13.19;91.60
41573;BME280;27286;47.870;19.006;2024-02-26T09:34:58;98434.28;;;14.38;89.65
41573;BME280;27286;47.870;19.006;2024-02-26T09:37:23;98441.06;;;14.17;83.17
41573;BME280;27286;47.870;19.006;2024-02-26T09:39:48;98445.88;;;13.10;86.26
41573;BME280;27286;47.870;19.006;2024-02-26T09:42:15;98448.56;;;12.96;91.00
41573;BME280;27286;47.870;19.006;2024-02-26T09:44:43;98447.19;;;12.51;91.66
41573;BME280;27286;47.870;19.006;2024-02-26T09:47:10;98448.75;;;12.53;95.57
41573;BME280;27286;47.870;19.006;2024-02-26T09:49:36;98454.75;;;12.41;95.70
41573;BME280;27286;47.870;19.006;2024-02-26T09:52:04;98452.84;;;12.30;97.05
41573;BME280;27286;47.870;19.006;2024-02-26T09:54:30;98460.06;;;12.13;97.19
41573;BME280;27286;47.870;19.006;2024-02-26T09:56:59;98465.78;;;11.91;99.18
41573;BME280;27286;47.870;19.006;2024-02-26T09:59:27;98461.34;;;12.20;96.15
41573;BME280;27286;47.870;19.006;2024-02-26T10:01:53;98446.56;;;12.06;95.96
41573;BME280;27286;47.870;19.006;2024-02-26T10:04:20;98465.38;;;12.11;97.31
41573;BME280;27286;47.870;19.006;2024-02-26T10:06:46;98460.63;;;12.03;96.71
41573;BME280;27286;47.870;19.006;2024-02-26T10:09:12;98460.09;;;11.70;100.00
41573;BME280;27286;47.870;19.006;2024-02-26T10:11:38;98455.16;;;11.65;100.00
41573;BME280;27286;47.870;19.006;2024-02-26T10:14:05;98455.16;;;11.65;100.00
41573;BME280;27286;47.870;19.006;2024-02-26T10:16:31;98456.66;;;11.84;100.00
41573;BME280;27286;47.870;19.006;2024-02-26T10:18:58;98452.28;;;12.25;97.34
41573;BME280;27286;47.870;19.006;2024-02-26T10:21:24;98452.94;;;12.56;96.86
41573;BME280;27286;47.870;19.006;2024-02-26T10:23:49;98458.31;;;12.67;94.58
41573;BME280;27286;47.870;19.006;2024-02-26T10:26:18;98407.50;;;12.46;94.19
41573;BME280;27286;47.870;19.006;2024-02-26T10:28:45;98447.97;;;12.65;93.94
41573;BME280;27286;47.870;19.006;2024-02-26T10:31:11;98451.63;;;12.36;96.44
41573;BME280;27286;47.870;19.006;2024-02-26T10:33:38;98453.66;;;12.45;96.19
41573;BME280;27286;47.870;19.006;2024-02-26T10:36:07;98448.81;;;12.66;93.45
41573;BME280;27286;47.870;19.006;2024-02-26T10:38:34;98451.88;;;12.85;94.04
41573;BME280;27286;47.870;19.006;2024-02-26T10:41:04;98445.50;;;12.77;94.60
41573;BME280;27286;47.870;19.006;2024-02-26T10:43:30;98447.34;;;12.75;95.77
41573;BME280;27286;47.870;19.006;2024-02-26T10:45:56;98444.41;;;12.67;95.69
41573;BME280;27286;47.870;19.006;2024-02-26T10:48:21;98445.44;;;13.04;92.46
41573;BME280;27286;47.870;19.006;2024-02-26T10:50:47;98453.50;;;13.13;89.99
41573;BME280;27286;47.870;19.006;2024-02-26T10:53:17;98437.34;;;12.81;94.30
41573;BME280;27286;47.870;19.006;2024-02-26T10:55:52;98442.38;;;12.84;95.73
41573;BME280;27286;47.870;19.006;2024-02-26T10:58:20;98445.50;;;12.23;95.56
41573;BME280;27286;47.870;19.006;2024-02-26T11:00:47;98451.88;;;12.04;96.26
41573;BME280;27286;47.870;19.006;2024-02-26T11:03:15;98439.16;;;11.86;95.33
41573;BME280;27286;47.870;19.006;2024-02-26T11:05:44;98436.78;;;12.10;96.71
41573;BME280;27286;47.870;19.006;2024-02-26T11:08:11;98418.38;;;11.84;99.37
41573;BME280;27286;47.870;19.006;2024-02-26T11:10:37;98417.84;;;12.20;97.38
41573;BME280;27286;47.870;19.006;2024-02-26T11:13:05;98428.69;;;12.54;96.04
41573;BME280;27286;47.870;19.006;2024-02-26T11:15:32;98429.69;;;12.65;94.12
41573;BME280;27286;47.870;19.006;2024-02-26T11:17:59;98430.38;;;13.07;92.67
41573;BME280;27286;47.870;19.006;2024-02-26T11:20:28;98434.19;;;13.54;88.02
41573;BME280;27286;47.870;19.006;2024-02-26T11:22:53;98430.59;;;13.80;85.80
41573;BME280;27286;47.870;19.006;2024-02-26T11:25:19;98433.34;;;14.03;84.51
41573;BME280;27286;47.870;19.006;2024-02-26T11:27:49;98420.28;;;14.27;83.70
41573;BME280;27286;47.870;19.006;2024-02-26T11:30:18;98423.66;;;14.29;84.08
41573;BME280;27286;47.870;19.006;2024-02-26T11:32:45;98425.38;;;14.17;84.00
41573;BME280;27286;47.870;19.006;2024-02-26T11:35:12;98426.66;;;14.35;85.16
41573;BME280;27286;47.870;19.006;2024-02-26T11:37:40;98416.91;;;14.37;82.57
41573;BME280;27286;47.870;19.006;2024-02-26T11:40:10;98420.41;;;14.25;82.43
41573;BME280;27286;47.870;19.006;2024-02-26T11:42:43;98419.19;;;14.18;82.56
41573;BME280;27286;47.870;19.006;2024-02-26T11:48:03;98414.38;;;15.52;74.80
41573;BME280;27286;47.870;19.006;2024-02-26T11:50:54;98398.13;;;16.03;69.92
41573;BME280;27286;47.870;19.006;2024-02-26T11:55:45;98400.56;;;16.70;68.70
41573;BME280;27286;47.870;19.006;2024-02-26T11:58:10;98413.94;;;16.99;67.90
41573;BME280;27286;47.870;19.006;2024-02-26T12:00:36;98412.63;;;17.35;65.96
41573;BME280;27286;47.870;19.006;2024-02-26T12:03:02;98410.34;;;17.00;68.11
41573;BME280;27286;47.870;19.006;2024-02-26T12:05:32;98409.16;;;16.93;66.01
41573;BME280;27286;47.870;19.006;2024-02-26T12:08:08;98404.31;;;16.45;68.32
41573;BME280;27286;47.870;19.006;2024-02-26T12:10:36;98408.75;;;16.45;68.13
41573;BME280;27286;47.870;19.006;2024-02-26T12:13:07;98403.50;;;16.45;69.78
41573;BME280;27286;47.870;19.006;2024-02-26T12:15:36;98403.91;;;15.86;72.06
41573;BME280;27286;47.870;19.006;2024-02-26T12:18:04;98401.63;;;15.59;69.96
41573;BME280;27286;47.870;19.006;2024-02-26T12:20:30;98402.31;;;15.16;73.02
41573;BME280;27286;47.870;19.006;2024-02-26T12:22:56;98405.50;;;14.97;75.85
41573;BME280;27286;47.870;19.006;2024-02-26T12:25:25;98411.84;;;15.17;75.37
41573;BME280;27286;47.870;19.006;2024-02-26T12:27:54;98414.38;;;15.30;75.09
41573;BME280;27286;47.870;19.006;2024-02-26T12:30:20;98414.59;;;15.16;75.42
41573;BME280;27286;47.870;19.006;2024-02-26T12:32:50;98405.34;;;14.88;76.11
41573;BME280;27286;47.870;19.006;2024-02-26T12:35:16;98409.03;;;14.37;78.90
41573;BME280;27286;47.870;19.006;2024-02-26T12:37:43;98412.25;;;14.41;78.63
41573;BME280;27286;47.870;19.006;2024-02-26T12:40:10;98415.00;;;14.39;76.53
41573;BME280;27286;47.870;19.006;2024-02-26T12:42:36;98411.44;;;14.40;77.36
41573;BME280;27286;47.870;19.006;2024-02-26T12:45:06;98409.81;;;14.27;77.89
41573;BME280;27286;47.870;19.006;2024-02-26T12:47:39;98390.78;;;14.01;78.83